sensor_id;sensor_type;location;lat;lon;timestamp;P1;durP1;ratioP1;P2;durP2;ratioP2
39442;SDS011;25147;52.142;9.960;2023-07-31T00:00:34;2.83;;;1.88;;
39442;SDS011;25147;52.142;9.960;2023-07-31T00:03:05;4.10;;;1.92;;
39442;SDS011;25147;52.142;9.960;2023-07-31T00:05:32;2.63;;;1.73;;
39442;SDS011;25147;52.142;9.960;2023-07-31T00:08:00;5.28;;;1.73;;
39442;SDS011;25147;52.142;9.960;2023-07-31T00:10:30;3.17;;;1.58;;
39442;SDS011;25147;52.142;9.960;2023-07-31T00:12:58;3.88;;;1.48;;
39442;SDS011;25147;52.142;9.960;2023-07-31T00:15:25;2.28;;;1.30;;
39442;SDS011;25147;52.142;9.960;2023-07-31T00:17:52;1.77;;;1.25;;
39442;SDS011;25147;52.142;9.960;2023-07-31T00:20:19;3.08;;;1.40;;
39442;SDS011;25147;52.142;9.960;2023-07-31T00:22:46;4.88;;;1.83;;
39442;SDS011;25147;52.142;9.960;2023-07-31T00:25:16;2.85;;;1.25;;
39442;SDS011;25147;52.142;9.960;2023-07-31T00:27:46;3.28;;;1.42;;
39442;SDS011;25147;52.142;9.960;2023-07-31T00:30:18;2.30;;;1.40;;
39442;SDS011;25147;52.142;9.960;2023-07-31T00:32:59;2.45;;;1.52;;
39442;SDS011;25147;52.142;9.960;2023-07-31T00:35:26;2.58;;;1.65;;
39442;SDS011;25147;52.142;9.960;2023-07-31T00:37:58;3.25;;;1.30;;
39442;SDS011;25147;52.142;9.960;2023-07-31T00:40:28;2.28;;;1.40;;
39442;SDS011;25147;52.142;9.960;2023-07-31T00:42:57;1.35;;;1.00;;
39442;SDS011;25147;52.142;9.960;2023-07-31T00:45:41;2.05;;;1.30;;
39442;SDS011;25147;52.142;9.960;2023-07-31T00:48:11;1.70;;;1.48;;
39442;SDS011;25147;52.142;9.960;2023-07-31T00:50:42;1.80;;;1.02;;
39442;SDS011;25147;52.142;9.960;2023-07-31T00:53:10;4.57;;;1.25;;
39442;SDS011;25147;52.142;9.960;2023-07-31T00:55:37;2.10;;;1.40;;
39442;SDS011;25147;52.142;9.960;2023-07-31T00:58:04;2.38;;;1.38;;
39442;SDS011;25147;52.142;9.960;2023-07-31T01:00:31;4.50;;;1.58;;
39442;SDS011;25147;52.142;9.960;2023-07-31T01:03:05;3.28;;;1.30;;
39442;SDS011;25147;52.142;9.960;2023-07-31T01:05:40;3.50;;;1.30;;
39442;SDS011;25147;52.142;9.960;2023-07-31T01:08:18;2.22;;;1.20;;
39442;SDS011;25147;52.142;9.960;2023-07-31T01:10:54;3.85;;;1.50;;
39442;SDS011;25147;52.142;9.960;2023-07-31T01:13:33;3.60;;;1.25;;
39442;SDS011;25147;52.142;9.960;2023-07-31T01:16:06;1.98;;;1.27;;
39442;SDS011;25147;52.142;9.960;2023-07-31T01:18:42;1.50;;;1.30;;
39442;SDS011;25147;52.142;9.960;2023-07-31T01:21:18;2.25;;;1.02;;
39442;SDS011;25147;52.142;9.960;2023-07-31T01:24:01;1.33;;;1.08;;
39442;SDS011;25147;52.142;9.960;2023-07-31T01:26:42;1.95;;;1.30;;
39442;SDS011;25147;52.142;9.960;2023-07-31T01:29:13;3.15;;;1.35;;
39442;SDS011;25147;52.142;9.960;2023-07-31T01:31:47;1.90;;;1.33;;
39442;SDS011;25147;52.142;9.960;2023-07-31T01:34:16;1.83;;;1.13;;
39442;SDS011;25147;52.142;9.960;2023-07-31T01:36:43;0.88;;;0.80;;
39442;SDS011;25147;52.142;9.960;2023-07-31T01:39:10;1.20;;;1.10;;
39442;SDS011;25147;52.142;9.960;2023-07-31T01:41:37;1.42;;;0.95;;
39442;SDS011;25147;52.142;9.960;2023-07-31T01:44:06;1.85;;;1.05;;
39442;SDS011;25147;52.142;9.960;2023-07-31T01:46:33;0.98;;;0.88;;
39442;SDS011;25147;52.142;9.960;2023-07-31T01:49:00;1.67;;;1.08;;
39442;SDS011;25147;52.142;9.960;2023-07-31T01:51:27;2.78;;;1.10;;
39442;SDS011;25147;52.142;9.960;2023-07-31T01:53:54;1.75;;;1.00;;
39442;SDS011;25147;52.142;9.960;2023-07-31T01:56:20;1.70;;;1.20;;
39442;SDS011;25147;52.142;9.960;2023-07-31T01:58:47;1.92;;;1.30;;
39442;SDS011;25147;52.142;9.960;2023-07-31T02:01:15;2.13;;;1.17;;
39442;SDS011;25147;52.142;9.960;2023-07-31T02:03:42;0.90;;;0.90;;
39442;SDS011;25147;52.142;9.960;2023-07-31T02:06:09;2.65;;;1.20;;
39442;SDS011;25147;52.142;9.960;2023-07-31T02:08:36;2.40;;;1.23;;
39442;SDS011;25147;52.142;9.960;2023-07-31T02:11:03;1.73;;;1.10;;
39442;SDS011;25147;52.142;9.960;2023-07-31T02:13:30;1.73;;;1.02;;
39442;SDS011;25147;52.142;9.960;2023-07-31T02:15:57;3.25;;;1.30;;
39442;SDS011;25147;52.142;9.960;2023-07-31T02:18:25;1.00;;;0.90;;
39442;SDS011;25147;52.142;9.960;2023-07-31T02:20:52;3.10;;;1.02;;
39442;SDS011;25147;52.142;9.960;2023-07-31T02:23:19;1.25;;;0.98;;
39442;SDS011;25147;52.142;9.960;2023-07-31T02:25:46;1.42;;;0.90;;
39442;SDS011;25147;52.142;9.960;2023-07-31T02:28:13;1.00;;;0.90;;
39442;SDS011;25147;52.142;9.960;2023-07-31T02:30:39;1.25;;;0.90;;
39442;SDS011;25147;52.142;9.960;2023-07-31T02:33:10;1.13;;;0.88;;
39442;SDS011;25147;52.142;9.960;2023-07-31T02:35:38;1.63;;;0.98;;
39442;SDS011;25147;52.142;9.960;2023-07-31T02:38:05;1.38;;;1.08;;
39442;SDS011;25147;52.142;9.960;2023-07-31T02:40:32;3.28;;;1.20;;
39442;SDS011;25147;52.142;9.960;2023-07-31T02:42:59;1.90;;;1.00;;
39442;SDS011;25147;52.142;9.960;2023-07-31T02:45:25;0.90;;;0.88;;
39442;SDS011;25147;52.142;9.960;2023-07-31T02:47:52;1.42;;;1.10;;
39442;SDS011;25147;52.142;9.960;2023-07-31T02:50:19;0.70;;;0.70;;
39442;SDS011;25147;52.142;9.960;2023-07-31T02:52:47;1.15;;;1.00;;
39442;SDS011;25147;52.142;9.960;2023-07-31T02:55:14;2.47;;;0.90;;
39442;SDS011;25147;52.142;9.960;2023-07-31T02:57:41;1.58;;;1.00;;
39442;SDS011;25147;52.142;9.960;2023-07-31T03:00:08;1.13;;;0.95;;
39442;SDS011;25147;52.142;9.960;2023-07-31T03:02:35;3.20;;;2.40;;
39442;SDS011;25147;52.142;9.960;2023-07-31T03:05:02;2.40;;;0.98;;
39442;SDS011;25147;52.142;9.960;2023-07-31T03:07:30;1.40;;;0.80;;
39442;SDS011;25147;52.142;9.960;2023-07-31T03:09:59;0.80;;;0.80;;
39442;SDS011;25147;52.142;9.960;2023-07-31T03:12:25;2.83;;;1.00;;
39442;SDS011;25147;52.142;9.960;2023-07-31T03:14:52;1.58;;;0.90;;
39442;SDS011;25147;52.142;9.960;2023-07-31T03:17:19;0.70;;;0.70;;
39442;SDS011;25147;52.142;9.960;2023-07-31T03:19:46;2.03;;;1.00;;
39442;SDS011;25147;52.142;9.960;2023-07-31T03:22:13;1.13;;;1.05;;
39442;SDS011;25147;52.142;9.960;2023-07-31T03:24:40;0.80;;;0.80;;
39442;SDS011;25147;52.142;9.960;2023-07-31T03:27:08;0.70;;;0.70;;
39442;SDS011;25147;52.142;9.960;2023-07-31T03:29:35;0.70;;;0.70;;
39442;SDS011;25147;52.142;9.960;2023-07-31T03:32:02;1.02;;;0.70;;
39442;SDS011;25147;52.142;9.960;2023-07-31T03:34:29;1.48;;;1.20;;
39442;SDS011;25147;52.142;9.960;2023-07-31T03:36:57;0.90;;;0.90;;
39442;SDS011;25147;52.142;9.960;2023-07-31T03:39:24;0.93;;;0.90;;
39442;SDS011;25147;52.142;9.960;2023-07-31T03:41:51;1.60;;;1.10;;
39442;SDS011;25147;52.142;9.960;2023-07-31T03:44:19;1.67;;;1.10;;
39442;SDS011;25147;52.142;9.960;2023-07-31T03:46:46;0.80;;;0.80;;
39442;SDS011;25147;52.142;9.960;2023-07-31T03:49:12;1.83;;;1.30;;
39442;SDS011;25147;52.142;9.960;2023-07-31T03:51:39;1.35;;;1.00;;
39442;SDS011;25147;52.142;9.960;2023-07-31T03:54:07;1.38;;;1.10;;
39442;SDS011;25147;52.142;9.960;2023-07-31T03:56:34;1.40;;;1.10;;
39442;SDS011;25147;52.142;9.960;2023-07-31T03:59:00;2.35;;;1.20;;
39442;SDS011;25147;52.142;9.960;2023-07-31T04:01:29;1.40;;;1.25;;
39442;SDS011;25147;52.142;9.960;2023-07-31T04:03:55;2.08;;;1.23;;
39442;SDS011;25147;52.142;9.960;2023-07-31T04:06:22;1.45;;;0.93;;
39442;SDS011;25147;52.142;9.960;2023-07-31T04:08:49;1.30;;;1.00;;
39442;SDS011;25147;52.142;9.960;2023-07-31T04:11:16;2.22;;;1.33;;
39442;SDS011;25147;52.142;9.960;2023-07-31T04:13:43;2.63;;;1.20;;
39442;SDS011;25147;52.142;9.960;2023-07-31T04:16:10;0.75;;;0.75;;
39442;SDS011;25147;52.142;9.960;2023-07-31T04:18:38;1.10;;;0.73;;
39442;SDS011;25147;52.142;9.960;2023-07-31T04:21:05;1.23;;;0.95;;
39442;SDS011;25147;52.142;9.960;2023-07-31T04:23:32;1.00;;;0.90;;
39442;SDS011;25147;52.142;9.960;2023-07-31T04:25:59;1.75;;;0.80;;
39442;SDS011;25147;52.142;9.960;2023-07-31T04:28:26;1.35;;;0.70;;
39442;SDS011;25147;52.142;9.960;2023-07-31T04:30:53;3.97;;;0.90;;
39442;SDS011;25147;52.142;9.960;2023-07-31T04:33:20;1.08;;;0.80;;
39442;SDS011;25147;52.142;9.960;2023-07-31T04:35:52;1.45;;;0.73;;
39442;SDS011;25147;52.142;9.960;2023-07-31T04:38:20;1.50;;;1.00;;
39442;SDS011;25147;52.142;9.960;2023-07-31T04:40:47;1.25;;;0.90;;
39442;SDS011;25147;52.142;9.960;2023-07-31T04:43:14;1.90;;;0.80;;
39442;SDS011;25147;52.142;9.960;2023-07-31T04:45:42;1.85;;;0.80;;
39442;SDS011;25147;52.142;9.960;2023-07-31T04:48:09;1.63;;;0.90;;
39442;SDS011;25147;52.142;9.960;2023-07-31T04:50:36;1.17;;;1.00;;
39442;SDS011;25147;52.142;9.960;2023-07-31T04:53:04;0.70;;;0.70;;
39442;SDS011;25147;52.142;9.960;2023-07-31T04:55:31;2.20;;;1.05;;
39442;SDS011;25147;52.142;9.960;2023-07-31T04:57:58;1.30;;;1.13;;
39442;SDS011;25147;52.142;9.960;2023-07-31T05:00:25;1.60;;;1.30;;
39442;SDS011;25147;52.142;9.960;2023-07-31T05:02:52;1.60;;;1.50;;
39442;SDS011;25147;52.142;9.960;2023-07-31T05:05:19;2.83;;;1.80;;
39442;SDS011;25147;52.142;9.960;2023-07-31T05:07:48;2.38;;;2.00;;
39442;SDS011;25147;52.142;9.960;2023-07-31T05:10:16;4.55;;;2.28;;
39442;SDS011;25147;52.142;9.960;2023-07-31T05:12:43;4.70;;;2.92;;
39442;SDS011;25147;52.142;9.960;2023-07-31T05:15:10;3.72;;;2.97;;
39442;SDS011;25147;52.142;9.960;2023-07-31T05:17:37;3.72;;;3.33;;
39442;SDS011;25147;52.142;9.960;2023-07-31T05:20:05;5.20;;;3.70;;
39442;SDS011;25147;52.142;9.960;2023-07-31T05:22:33;6.40;;;4.30;;
39442;SDS011;25147;52.142;9.960;2023-07-31T05:25:00;5.90;;;4.03;;
39442;SDS011;25147;52.142;9.960;2023-07-31T05:27:30;7.10;;;4.30;;
39442;SDS011;25147;52.142;9.960;2023-07-31T05:29:58;6.28;;;4.95;;
39442;SDS011;25147;52.142;9.960;2023-07-31T05:32:28;7.78;;;5.40;;
39442;SDS011;25147;52.142;9.960;2023-07-31T05:34:54;6.07;;;5.38;;
39442;SDS011;25147;52.142;9.960;2023-07-31T05:37:22;10.18;;;5.88;;
39442;SDS011;25147;52.142;9.960;2023-07-31T05:39:51;9.63;;;6.10;;
39442;SDS011;25147;52.142;9.960;2023-07-31T05:42:20;9.10;;;6.07;;
39442;SDS011;25147;52.142;9.960;2023-07-31T05:44:49;8.88;;;6.30;;
39442;SDS011;25147;52.142;9.960;2023-07-31T05:47:16;8.07;;;6.10;;
39442;SDS011;25147;52.142;9.960;2023-07-31T05:49:43;7.80;;;5.57;;
39442;SDS011;25147;52.142;9.960;2023-07-31T05:52:10;11.90;;;6.07;;
39442;SDS011;25147;52.142;9.960;2023-07-31T05:54:38;7.20;;;5.47;;
39442;SDS011;25147;52.142;9.960;2023-07-31T05:57:05;6.60;;;5.22;;
39442;SDS011;25147;52.142;9.960;2023-07-31T05:59:32;5.72;;;5.10;;
39442;SDS011;25147;52.142;9.960;2023-07-31T06:02:00;7.28;;;4.90;;
39442;SDS011;25147;52.142;9.960;2023-07-31T06:04:27;6.40;;;4.88;;
39442;SDS011;25147;52.142;9.960;2023-07-31T06:06:54;8.40;;;4.65;;
39442;SDS011;25147;52.142;9.960;2023-07-31T06:09:21;4.88;;;4.22;;
39442;SDS011;25147;52.142;9.960;2023-07-31T06:11:48;8.18;;;4.47;;
39442;SDS011;25147;52.142;9.960;2023-07-31T06:14:17;6.60;;;4.07;;
39442;SDS011;25147;52.142;9.960;2023-07-31T06:16:46;6.68;;;4.20;;
39442;SDS011;25147;52.142;9.960;2023-07-31T06:19:14;4.88;;;4.22;;
39442;SDS011;25147;52.142;9.960;2023-07-31T06:21:41;6.88;;;4.25;;
39442;SDS011;25147;52.142;9.960;2023-07-31T06:24:09;6.90;;;4.75;;
39442;SDS011;25147;52.142;9.960;2023-07-31T06:26:37;5.78;;;4.43;;
39442;SDS011;25147;52.142;9.960;2023-07-31T06:29:08;7.75;;;4.75;;
39442;SDS011;25147;52.142;9.960;2023-07-31T06:31:35;8.02;;;5.10;;
39442;SDS011;25147;52.142;9.960;2023-07-31T06:34:02;7.00;;;5.50;;
39442;SDS011;25147;52.142;9.960;2023-07-31T06:36:30;10.82;;;5.65;;
39442;SDS011;25147;52.142;9.960;2023-07-31T06:38:57;9.48;;;7.05;;
39442;SDS011;25147;52.142;9.960;2023-07-31T06:41:24;10.73;;;7.30;;
39442;SDS011;25147;52.142;9.960;2023-07-31T06:43:51;9.05;;;7.07;;
39442;SDS011;25147;52.142;9.960;2023-07-31T06:46:18;12.60;;;6.50;;
39442;SDS011;25147;52.142;9.960;2023-07-31T06:48:45;12.23;;;7.20;;
39442;SDS011;25147;52.142;9.960;2023-07-31T06:51:12;13.50;;;7.93;;
39442;SDS011;25147;52.142;9.960;2023-07-31T06:53:42;10.93;;;7.43;;
39442;SDS011;25147;52.142;9.960;2023-07-31T06:56:10;12.10;;;8.65;;
39442;SDS011;25147;52.142;9.960;2023-07-31T06:58:37;13.40;;;8.05;;
39442;SDS011;25147;52.142;9.960;2023-07-31T07:01:04;11.73;;;8.10;;
39442;SDS011;25147;52.142;9.960;2023-07-31T07:03:32;12.10;;;7.60;;
39442;SDS011;25147;52.142;9.960;2023-07-31T07:05:59;13.15;;;8.10;;
39442;SDS011;25147;52.142;9.960;2023-07-31T07:08:26;12.43;;;7.53;;
39442;SDS011;25147;52.142;9.960;2023-07-31T07:10:54;9.50;;;7.28;;
39442;SDS011;25147;52.142;9.960;2023-07-31T07:13:21;12.57;;;7.68;;
39442;SDS011;25147;52.142;9.960;2023-07-31T07:15:48;11.90;;;7.47;;
39442;SDS011;25147;52.142;9.960;2023-07-31T07:18:16;11.35;;;6.50;;
39442;SDS011;25147;52.142;9.960;2023-07-31T07:20:46;8.95;;;6.05;;
39442;SDS011;25147;52.142;9.960;2023-07-31T07:23:13;10.13;;;6.65;;
39442;SDS011;25147;52.142;9.960;2023-07-31T07:25:40;8.65;;;6.40;;
39442;SDS011;25147;52.142;9.960;2023-07-31T07:28:09;10.38;;;6.65;;
39442;SDS011;25147;52.142;9.960;2023-07-31T07:30:36;11.00;;;6.50;;
39442;SDS011;25147;52.142;9.960;2023-07-31T07:33:03;7.25;;;6.30;;
39442;SDS011;25147;52.142;9.960;2023-07-31T07:35:32;10.02;;;5.97;;
39442;SDS011;25147;52.142;9.960;2023-07-31T07:38:00;9.73;;;6.38;;
39442;SDS011;25147;52.142;9.960;2023-07-31T07:40:27;9.90;;;6.45;;
39442;SDS011;25147;52.142;9.960;2023-07-31T07:42:54;9.73;;;5.55;;
39442;SDS011;25147;52.142;9.960;2023-07-31T07:45:26;12.10;;;6.13;;
39442;SDS011;25147;52.142;9.960;2023-07-31T07:47:53;9.65;;;6.22;;
39442;SDS011;25147;52.142;9.960;2023-07-31T07:50:20;11.23;;;6.40;;
39442;SDS011;25147;52.142;9.960;2023-07-31T07:52:46;9.52;;;5.93;;
39442;SDS011;25147;52.142;9.960;2023-07-31T07:55:13;10.60;;;6.07;;
39442;SDS011;25147;52.142;9.960;2023-07-31T07:57:40;11.70;;;6.30;;
39442;SDS011;25147;52.142;9.960;2023-07-31T08:00:09;11.82;;;6.10;;
39442;SDS011;25147;52.142;9.960;2023-07-31T08:02:38;12.25;;;6.28;;
39442;SDS011;25147;52.142;9.960;2023-07-31T08:05:06;10.00;;;6.65;;
39442;SDS011;25147;52.142;9.960;2023-07-31T08:07:33;9.43;;;6.40;;
39442;SDS011;25147;52.142;9.960;2023-07-31T08:10:01;10.35;;;6.65;;
39442;SDS011;25147;52.142;9.960;2023-07-31T08:12:28;11.23;;;6.63;;
39442;SDS011;25147;52.142;9.960;2023-07-31T08:14:55;9.52;;;6.03;;
39442;SDS011;25147;52.142;9.960;2023-07-31T08:17:22;11.32;;;5.85;;
39442;SDS011;25147;52.142;9.960;2023-07-31T08:19:51;8.48;;;6.38;;
39442;SDS011;25147;52.142;9.960;2023-07-31T08:22:18;10.48;;;6.63;;
39442;SDS011;25147;52.142;9.960;2023-07-31T08:24:45;9.75;;;6.35;;
39442;SDS011;25147;52.142;9.960;2023-07-31T08:27:12;10.80;;;6.88;;
39442;SDS011;25147;52.142;9.960;2023-07-31T08:29:39;10.18;;;6.72;;
39442;SDS011;25147;52.142;9.960;2023-07-31T08:32:06;15.00;;;7.03;;
39442;SDS011;25147;52.142;9.960;2023-07-31T08:34:33;10.55;;;6.22;;
39442;SDS011;25147;52.142;9.960;2023-07-31T08:37:01;8.77;;;5.78;;
39442;SDS011;25147;52.142;9.960;2023-07-31T08:39:33;11.20;;;6.28;;
39442;SDS011;25147;52.142;9.960;2023-07-31T08:42:00;7.82;;;5.85;;
39442;SDS011;25147;52.142;9.960;2023-07-31T08:44:27;10.95;;;6.18;;
39442;SDS011;25147;52.142;9.960;2023-07-31T08:46:55;10.75;;;6.15;;
39442;SDS011;25147;52.142;9.960;2023-07-31T08:49:22;9.93;;;4.80;;
39442;SDS011;25147;52.142;9.960;2023-07-31T08:51:50;11.20;;;6.18;;
39442;SDS011;25147;52.142;9.960;2023-07-31T08:54:20;6.10;;;5.10;;
39442;SDS011;25147;52.142;9.960;2023-07-31T08:56:47;5.78;;;3.80;;
39442;SDS011;25147;52.142;9.960;2023-07-31T08:59:14;6.10;;;3.42;;
39442;SDS011;25147;52.142;9.960;2023-07-31T09:01:43;6.30;;;3.50;;
39442;SDS011;25147;52.142;9.960;2023-07-31T09:04:16;3.65;;;3.05;;
39442;SDS011;25147;52.142;9.960;2023-07-31T09:06:46;4.10;;;2.95;;
39442;SDS011;25147;52.142;9.960;2023-07-31T09:09:14;4.97;;;2.53;;
39442;SDS011;25147;52.142;9.960;2023-07-31T09:11:43;4.75;;;3.50;;
39442;SDS011;25147;52.142;9.960;2023-07-31T09:14:10;3.70;;;3.25;;
39442;SDS011;25147;52.142;9.960;2023-07-31T09:16:51;4.47;;;3.25;;
39442;SDS011;25147;52.142;9.960;2023-07-31T09:19:25;5.82;;;3.30;;
39442;SDS011;25147;52.142;9.960;2023-07-31T09:21:52;5.97;;;3.75;;
39442;SDS011;25147;52.142;9.960;2023-07-31T09:24:25;4.00;;;3.60;;
39442;SDS011;25147;52.142;9.960;2023-07-31T09:26:54;6.70;;;4.00;;
39442;SDS011;25147;52.142;9.960;2023-07-31T09:29:22;6.82;;;4.00;;
39442;SDS011;25147;52.142;9.960;2023-07-31T09:31:50;5.55;;;4.15;;
39442;SDS011;25147;52.142;9.960;2023-07-31T09:34:19;4.53;;;3.70;;
39442;SDS011;25147;52.142;9.960;2023-07-31T09:36:48;7.05;;;4.20;;
39442;SDS011;25147;52.142;9.960;2023-07-31T09:39:22;7.93;;;4.28;;
39442;SDS011;25147;52.142;9.960;2023-07-31T09:41:53;5.97;;;3.90;;
39442;SDS011;25147;52.142;9.960;2023-07-31T09:44:25;4.03;;;3.63;;
39442;SDS011;25147;52.142;9.960;2023-07-31T09:47:20;4.85;;;3.50;;
39442;SDS011;25147;52.142;9.960;2023-07-31T09:49:50;5.32;;;3.42;;
39442;SDS011;25147;52.142;9.960;2023-07-31T09:52:17;5.72;;;3.38;;
39442;SDS011;25147;52.142;9.960;2023-07-31T09:54:46;4.72;;;3.25;;
39442;SDS011;25147;52.142;9.960;2023-07-31T09:57:14;4.97;;;3.60;;
39442;SDS011;25147;52.142;9.960;2023-07-31T09:59:45;5.40;;;3.47;;
39442;SDS011;25147;52.142;9.960;2023-07-31T10:02:14;3.60;;;3.03;;
39442;SDS011;25147;52.142;9.960;2023-07-31T10:04:44;4.90;;;3.58;;
39442;SDS011;25147;52.142;9.960;2023-07-31T10:07:15;3.72;;;3.30;;
39442;SDS011;25147;52.142;9.960;2023-07-31T10:09:44;4.53;;;3.40;;
39442;SDS011;25147;52.142;9.960;2023-07-31T10:12:13;4.43;;;3.58;;
39442;SDS011;25147;52.142;9.960;2023-07-31T10:14:43;4.97;;;3.53;;
39442;SDS011;25147;52.142;9.960;2023-07-31T10:17:11;3.55;;;3.25;;
39442;SDS011;25147;52.142;9.960;2023-07-31T10:19:40;4.40;;;3.25;;
39442;SDS011;25147;52.142;9.960;2023-07-31T10:22:08;3.85;;;3.38;;
39442;SDS011;25147;52.142;9.960;2023-07-31T10:24:35;4.45;;;3.47;;
39442;SDS011;25147;52.142;9.960;2023-07-31T10:27:09;4.05;;;3.15;;
39442;SDS011;25147;52.142;9.960;2023-07-31T10:29:38;5.03;;;3.58;;
39442;SDS011;25147;52.142;9.960;2023-07-31T10:32:06;5.20;;;3.58;;
39442;SDS011;25147;52.142;9.960;2023-07-31T10:34:37;4.18;;;3.40;;
39442;SDS011;25147;52.142;9.960;2023-07-31T10:37:21;3.90;;;3.30;;
39442;SDS011;25147;52.142;9.960;2023-07-31T10:39:59;4.57;;;3.25;;
39442;SDS011;25147;52.142;9.960;2023-07-31T10:42:31;3.30;;;3.00;;
39442;SDS011;25147;52.142;9.960;2023-07-31T10:45:02;4.32;;;3.15;;
39442;SDS011;25147;52.142;9.960;2023-07-31T10:47:31;3.90;;;3.22;;
39442;SDS011;25147;52.142;9.960;2023-07-31T10:50:13;5.07;;;3.33;;
39442;SDS011;25147;52.142;9.960;2023-07-31T10:52:44;4.03;;;2.83;;
39442;SDS011;25147;52.142;9.960;2023-07-31T10:55:24;3.92;;;3.40;;
39442;SDS011;25147;52.142;9.960;2023-07-31T10:57:53;3.05;;;2.75;;
39442;SDS011;25147;52.142;9.960;2023-07-31T11:00:23;4.57;;;3.03;;
39442;SDS011;25147;52.142;9.960;2023-07-31T11:03:02;4.90;;;3.10;;
39442;SDS011;25147;52.142;9.960;2023-07-31T11:05:43;3.20;;;2.60;;
39442;SDS011;25147;52.142;9.960;2023-07-31T11:08:16;3.35;;;3.00;;
39442;SDS011;25147;52.142;9.960;2023-07-31T11:10:48;4.40;;;3.13;;
39442;SDS011;25147;52.142;9.960;2023-07-31T11:13:32;3.53;;;2.72;;
39442;SDS011;25147;52.142;9.960;2023-07-31T11:16:02;2.83;;;2.47;;
39442;SDS011;25147;52.142;9.960;2023-07-31T11:18:29;3.28;;;2.95;;
39442;SDS011;25147;52.142;9.960;2023-07-31T11:20:56;4.60;;;3.28;;
39442;SDS011;25147;52.142;9.960;2023-07-31T11:23:23;3.70;;;3.20;;
39442;SDS011;25147;52.142;9.960;2023-07-31T11:25:50;2.88;;;2.60;;
39442;SDS011;25147;52.142;9.960;2023-07-31T11:28:18;3.20;;;2.83;;
39442;SDS011;25147;52.142;9.960;2023-07-31T11:30:45;3.72;;;2.88;;
39442;SDS011;25147;52.142;9.960;2023-07-31T11:33:14;3.33;;;2.60;;
39442;SDS011;25147;52.142;9.960;2023-07-31T11:35:42;4.53;;;2.40;;
39442;SDS011;25147;52.142;9.960;2023-07-31T11:38:11;4.70;;;2.40;;
39442;SDS011;25147;52.142;9.960;2023-07-31T11:40:41;2.95;;;2.38;;
39442;SDS011;25147;52.142;9.960;2023-07-31T11:43:11;6.57;;;2.95;;
39442;SDS011;25147;52.142;9.960;2023-07-31T11:45:46;5.40;;;2.45;;
39442;SDS011;25147;52.142;9.960;2023-07-31T11:51:18;2.72;;;2.20;;
39442;SDS011;25147;52.142;9.960;2023-07-31T11:54:10;3.35;;;2.45;;
39442;SDS011;25147;52.142;9.960;2023-07-31T11:56:39;2.20;;;2.00;;
39442;SDS011;25147;52.142;9.960;2023-07-31T11:59:06;1.92;;;1.77;;
39442;SDS011;25147;52.142;9.960;2023-07-31T12:01:33;2.25;;;2.05;;
39442;SDS011;25147;52.142;9.960;2023-07-31T12:04:02;2.65;;;2.03;;
39442;SDS011;25147;52.142;9.960;2023-07-31T12:06:33;3.95;;;2.15;;
39442;SDS011;25147;52.142;9.960;2023-07-31T12:09:01;2.65;;;2.40;;
39442;SDS011;25147;52.142;9.960;2023-07-31T12:11:30;4.18;;;2.25;;
39442;SDS011;25147;52.142;9.960;2023-07-31T12:13:57;3.88;;;2.10;;
39442;SDS011;25147;52.142;9.960;2023-07-31T12:16:34;2.25;;;2.00;;
39442;SDS011;25147;52.142;9.960;2023-07-31T12:19:12;3.72;;;2.20;;
39442;SDS011;25147;52.142;9.960;2023-07-31T12:21:39;3.33;;;2.47;;
39442;SDS011;25147;52.142;9.960;2023-07-31T12:24:06;2.20;;;2.00;;
39442;SDS011;25147;52.142;9.960;2023-07-31T12:26:33;2.75;;;2.00;;
39442;SDS011;25147;52.142;9.960;2023-07-31T12:29:01;2.42;;;2.10;;
39442;SDS011;25147;52.142;9.960;2023-07-31T12:31:28;2.03;;;1.70;;
39442;SDS011;25147;52.142;9.960;2023-07-31T12:33:55;2.90;;;1.90;;
39442;SDS011;25147;52.142;9.960;2023-07-31T12:36:24;2.50;;;1.95;;
39442;SDS011;25147;52.142;9.960;2023-07-31T12:38:51;4.43;;;2.00;;
39442;SDS011;25147;52.142;9.960;2023-07-31T12:41:19;2.20;;;2.00;;
39442;SDS011;25147;52.142;9.960;2023-07-31T12:43:46;2.70;;;1.80;;
39442;SDS011;25147;52.142;9.960;2023-07-31T12:46:13;1.73;;;1.63;;
39442;SDS011;25147;52.142;9.960;2023-07-31T12:48:40;2.15;;;1.67;;
39442;SDS011;25147;52.142;9.960;2023-07-31T12:51:07;1.65;;;1.55;;
39442;SDS011;25147;52.142;9.960;2023-07-31T12:53:36;2.80;;;1.30;;
39442;SDS011;25147;52.142;9.960;2023-07-31T12:56:03;1.52;;;1.40;;
39442;SDS011;25147;52.142;9.960;2023-07-31T12:58:30;1.13;;;1.00;;
39442;SDS011;25147;52.142;9.960;2023-07-31T13:00:57;2.50;;;1.15;;
39442;SDS011;25147;52.142;9.960;2023-07-31T13:03:27;3.65;;;1.70;;
39442;SDS011;25147;52.142;9.960;2023-07-31T13:05:53;3.20;;;1.50;;
39442;SDS011;25147;52.142;9.960;2023-07-31T13:08:21;1.73;;;1.13;;
39442;SDS011;25147;52.142;9.960;2023-07-31T13:10:49;1.65;;;1.00;;
39442;SDS011;25147;52.142;9.960;2023-07-31T13:13:16;1.13;;;1.02;;
39442;SDS011;25147;52.142;9.960;2023-07-31T13:15:44;1.88;;;1.08;;
39442;SDS011;25147;52.142;9.960;2023-07-31T13:18:11;2.08;;;1.05;;
39442;SDS011;25147;52.142;9.960;2023-07-31T13:20:45;1.75;;;0.90;;
39442;SDS011;25147;52.142;9.960;2023-07-31T13:23:12;2.15;;;0.93;;
39442;SDS011;25147;52.142;9.960;2023-07-31T13:25:39;1.13;;;1.00;;
39442;SDS011;25147;52.142;9.960;2023-07-31T13:28:07;1.02;;;0.85;;
39442;SDS011;25147;52.142;9.960;2023-07-31T13:30:34;1.33;;;1.00;;
39442;SDS011;25147;52.142;9.960;2023-07-31T13:33:01;1.13;;;0.98;;
39442;SDS011;25147;52.142;9.960;2023-07-31T13:35:27;0.70;;;0.70;;
39442;SDS011;25147;52.142;9.960;2023-07-31T13:37:56;1.08;;;0.60;;
39442;SDS011;25147;52.142;9.960;2023-07-31T13:40:23;0.73;;;0.70;;
39442;SDS011;25147;52.142;9.960;2023-07-31T13:42:50;2.38;;;0.90;;
39442;SDS011;25147;52.142;9.960;2023-07-31T13:45:19;0.60;;;0.60;;
39442;SDS011;25147;52.142;9.960;2023-07-31T13:47:46;0.70;;;0.70;;
39442;SDS011;25147;52.142;9.960;2023-07-31T13:50:13;0.63;;;0.60;;
39442;SDS011;25147;52.142;9.960;2023-07-31T13:52:42;0.70;;;0.70;;
39442;SDS011;25147;52.142;9.960;2023-07-31T13:55:08;0.90;;;0.40;;
39442;SDS011;25147;52.142;9.960;2023-07-31T13:57:35;0.60;;;0.60;;
39442;SDS011;25147;52.142;9.960;2023-07-31T14:00:02;0.70;;;0.70;;
39442;SDS011;25147;52.142;9.960;2023-07-31T14:02:31;0.93;;;0.82;;
39442;SDS011;25147;52.142;9.960;2023-07-31T14:05:01;0.70;;;0.70;;
39442;SDS011;25147;52.142;9.960;2023-07-31T14:07:36;2.08;;;0.70;;
39442;SDS011;25147;52.142;9.960;2023-07-31T14:10:03;1.20;;;0.70;;
39442;SDS011;25147;52.142;9.960;2023-07-31T14:12:30;1.80;;;1.00;;
39442;SDS011;25147;52.142;9.960;2023-07-31T14:14:57;2.67;;;0.77;;
39442;SDS011;25147;52.142;9.960;2023-07-31T14:17:23;1.35;;;1.00;;
39442;SDS011;25147;52.142;9.960;2023-07-31T14:19:51;1.20;;;1.10;;
39442;SDS011;25147;52.142;9.960;2023-07-31T14:22:26;1.33;;;0.88;;
39442;SDS011;25147;52.142;9.960;2023-07-31T14:24:54;1.92;;;1.15;;
39442;SDS011;25147;52.142;9.960;2023-07-31T14:27:21;1.23;;;0.75;;
39442;SDS011;25147;52.142;9.960;2023-07-31T14:29:48;1.42;;;1.00;;
39442;SDS011;25147;52.142;9.960;2023-07-31T14:32:15;0.98;;;0.95;;
39442;SDS011;25147;52.142;9.960;2023-07-31T14:34:42;0.68;;;0.68;;
39442;SDS011;25147;52.142;9.960;2023-07-31T14:37:12;2.15;;;1.00;;
39442;SDS011;25147;52.142;9.960;2023-07-31T14:39:41;0.85;;;0.85;;
39442;SDS011;25147;52.142;9.960;2023-07-31T14:42:08;1.45;;;0.65;;
39442;SDS011;25147;52.142;9.960;2023-07-31T14:44:36;0.82;;;0.82;;
39442;SDS011;25147;52.142;9.960;2023-07-31T14:47:02;1.08;;;0.80;;
39442;SDS011;25147;52.142;9.960;2023-07-31T14:49:29;0.65;;;0.65;;
39442;SDS011;25147;52.142;9.960;2023-07-31T14:51:56;1.38;;;0.90;;
39442;SDS011;25147;52.142;9.960;2023-07-31T14:54:24;1.13;;;1.10;;
39442;SDS011;25147;52.142;9.960;2023-07-31T14:56:51;1.08;;;1.08;;